EST,Max TemperatureF,Mean TemperatureF,Min TemperatureF,Max Dew PointF,MeanDew PointF,Min DewpointF,Max Humidity, Mean Humidity, Min Humidity, Max Sea Level PressureIn, Mean Sea Level PressureIn, Min Sea Level PressureIn, Max VisibilityMiles, Mean VisibilityMiles, Min VisibilityMiles, Max Wind SpeedMPH, Mean Wind SpeedMPH, Max Gust SpeedMPH,PrecipitationIn, CloudCover, Events, WindDirDegrees
2012-1-1,46,32,19,39,33,19,97,86,71,30.04,29.88,29.67,10,10,5,6,1,,0.06,5,Rain,150
2012-1-2,41,36,30,39,30,15,100,79,45,29.62,29.51,29.44,10,6,0,14,3,23,0.03,6,Fog-Rain,228
2012-1-3,30,16,3,16,2,-3,80,53,40,30.02,29.84,29.62,10,10,10,13,6,21,0.00,2,,317
2012-1-4,21,10,-2,2,-1,-6,83,59,32,30.06,29.98,29.86,10,10,10,12,1,18,0.00,3,,181
2012-1-5,32,25,18,17,9,3,71,55,44,29.89,29.80,29.69,10,10,10,15,4,30,0.00,4,,274
2012-1-6,23,20,15,20,16,7,96,83,55,29.92,29.85,29.75,10,7,2,5,1,,0.02,6,Snow,272
2012-1-7,32,23,14,25,20,12,100,89,75,29.85,29.75,29.68,10,9,1,4,0,,0.00,5,,305
2012-1-8,37,26,12,27,17,8,92,60,46,30.26,30.09,29.86,10,10,10,14,7,26,0.00,2,,286
2012-1-9,35,22,8,15,12,5,88,71,37,30.28,30.15,29.94,10,10,10,6,1,,0.00,3,,226
2012-1-10,39,28,18,25,17,8,88,61,40,29.92,29.81,29.71,10,10,10,20,5,32,0.00,4,,265
2012-1-11,34,22,10,16,10,6,88,56,31,30.17,30.10,29.94,10,10,10,9,1,,0.00,4,,107
2012-1-12,27,24,21,25,20,10,93,86,53,30.15,29.83,29.59,10,3,0,12,7,21,0.51,8,Fog-Rain-Snow,11
2012-1-13,33,28,24,29,25,19,100,91,67,29.59,29.29,29.08,10,5,1,17,3,32,0.10,8,Rain-Snow,309
2012-1-14,32,14,-6,22,6,-12,76,59,36,30.00,29.72,29.41,10,10,10,15,8,25,0.00,4,,275
2012-1-15,10,-4,-17,-9,-15,-22,83,68,40,30.48,30.28,30.01,10,10,10,8,1,,0.00,0,,331
2012-1-16,26,2,-20,13,-6,-25,79,57,34,30.56,30.37,30.05,10,10,10,7,1,,0.00,2,,193
2012-1-17,32,28,24,31,25,17,100,86,66,30.03,29.73,29.42,10,6,2,10,3,18,0.18,8,Rain-Snow,345
2012-1-18,37,24,1,33,14,-5,100,65,43,30.12,29.69,29.34,10,8,2,20,6,32,0.01,3,,280
2012-1-19,23,6,-11,15,2,-16,92,72,38,30.36,30.15,29.98,10,7,1,6,1,,0.10,2,Snow,6
2012-1-20,25,13,1,16,6,-7,95,65,38,30.26,30.04,29.91,10,7,0,17,3,29,0.19,2,Fog-Snow,288
2012-1-21,15,4,-9,9,2,-13,92,79,64,30.39,30.26,30.19,10,6,1,4,0,,0.03,6,Snow,280
2012-1-22,24,4,-17,10,-3,-22,95,69,44,30.61,30.54,30.44,10,10,10,6,1,,0.00,1,,160
2012-1-23,33,27,21,32,28,15,100,92,71,30.50,30.20,29.90,10,4,1,4,0,,0.72,8,Rain-Snow,340
2012-1-24,48,40,32,41,32,21,100,84,51,29.98,29.87,29.81,10,8,1,9,1,20,0.08,7,Rain,249
2012-1-25,37,31,25,23,20,17,78,57,48,30.16,30.09,29.99,10,10,10,14,8,25,0.00,2,,274
2012-1-26,39,28,18,29,21,9,100,75,33,30.22,30.12,30.04,10,6,1,8,2,,0.10,5,Snow,117
2012-1-27,37,32,28,32,29,26,100,93,70,30.02,29.66,29.31,10,4,1,25,4,44,1.07,8,Rain-Snow,357
2012-1-28,39,32,24,28,25,22,96,74,57,29.95,29.82,29.53,10,10,10,23,9,34,0.00,2,,248
2012-1-29,37,30,23,28,17,12,79,54,35,29.98,29.91,29.78,10,9,3,15,9,24,0.00,3,Snow,235
2012-1-30,28,20,10,19,10,4,88,62,36,30.27,30.08,29.91,10,10,10,24,5,40,0.00,1,,294
2012-1-31,23,16,8,21,16,4,100,87,79,30.26,30.16,30.04,10,4,0,4,0,,0.18,8,Fog-Snow,290